Acarobasi, Turkey

5:24 AM +03 on August 23, 2017 (GMT +0300)
Oguzeli | | Change Station

Elev 2805 ft 37.08 °N, 37.37 °E | Updated 34 minutes ago

Clear
Clear
72 °F
Feels Like 72 °F
N
5
Wind Variable Wind from WSW

Today
High -- | Low -- °F
--% Chance of Precip.
Yesterday
High -- | Low -- °F
Precip. -- in
Pressure 29.74 in
Visibility -9999.0 miles
Clouds
Dew Point 57 °F
Humidity 60%
Rainfall 0.00 in
Snow Depth Not available.
5:54 AM 7:12 PM
New Moon, 2% visible
METAR LTAJ 230150Z 25004KT CAVOK 22/14 Q1007 NOSIG RMK RWY10 25004KT 220V280
Pressure 29.74 in
Visibility -9999.0 miles
Clouds
Dew Point 57 °F
Humidity 60%
Rainfall 0.00 in
Snow Depth Not available.
5:54 AM 7:12 PM
New Moon, 2% visible
METAR LTAJ 230150Z 25004KT CAVOK 22/14 Q1007 NOSIG RMK RWY10 25004KT 220V280

Get Severe Weather Alerts

Thanks for signing up!

Be on the lookout for a verification email in your inbox.

You'll start receiving the daily forecast at 6 AM.

×

10-Day Weather Forecast

×

Almanac

Astronomy

Aug. 23, 2017 Rise Set
Actual Time
Civil Twilight
Nautical Twilight
Astronomical Twilight
Moon
Length of Visible Light
Length of Day
Tomorrow will be .
, % of the Moon is Illuminated

Today's Extremes

Country Highs Country Lows

Community

WunderPhotos

Category 6

Welcome to Category 6. This is the collective home for Weather Underground's featured writeups by Dr. Jeff Masters (right), Bob Henson (left), Chris Burt, and other regular contributors.

Nearby

Air Quality

  Air Quality AQ Index Pollutant
Not available.

Snow Depth

Station Depth Elevation

Earthquake Activity

City Distance Mag. Time & Date
Minimum magnitude displayed is 2.5.

Coastal Water Temperatures

Place Temperature

Stations

Nearby Weather Stations

Station Location Temp. Windchill Dew Point Humidity Wind Precip. Elev Updated Type